Time;durP1;ratioP1;P1;durP2;ratioP2;P2;SDS_P1;SDS_P2;PMS_P1;PMS_P2;Temp;Humidity;BMP_temperature;BMP_pressure;BME280_temperature;BME280_humidity;BME280_pressure;Samples;Min_cycle;Max_cycle;Signal;HPM_P1;HPM_P2
2021/10/05 00:00:47;;;;;;;;;;;;;;;10.55;95.59;98303.38;1784957;79;20211;-82
2021/10/05 00:03:13;;;;;;;;;;;;;;;10.54;95.73;98307.18;1785353;80;20254;-83
2021/10/05 00:05:39;;;;;;;;;;;;;;;10.52;95.81;98296.62;1784901;79;20426;-83
2021/10/05 00:08:05;;;;;;;;;;;;;;;10.50;95.18;98300.12;1757507;80;20230;-83
2021/10/05 00:10:30;;;;;;;;;;;;;;;10.48;95.03;98302.30;1784959;79;21130;-83
2021/10/05 00:12:56;;;;;;;;;;;;;;;10.45;95.32;98302.30;1757779;80;20179;-83
2021/10/05 00:15:22;;;;;;;;;;;;;;;10.38;95.17;98301.77;1784980;79;20186;-83
2021/10/05 00:17:48;;;;;;;;;;;;;;;10.30;95.44;98298.23;1758773;80;20353;-84
2021/10/05 00:20:14;;;;;;;;;;;;;;;10.22;95.81;98297.94;1785021;79;20155;-83
2021/10/05 00:22:39;;;;;;;;;;;;;;;10.10;96.41;98306.33;1785013;80;20650;-83
2021/10/05 00:25:05;;;;;;;;;;;;;;;10.06;97.60;98299.81;1757279;80;20308;-83
2021/10/05 00:27:31;;;;;;;;;;;;;;;10.05;97.91;98292.78;1784928;80;20207;-83
2021/10/05 00:29:58;;;;;;;;;;;;;;;10.04;97.97;98285.74;1758693;80;20165;-83
2021/10/05 00:32:23;;;;;;;;;;;;;;;10.03;98.57;98290.89;1785391;80;20155;-83
2021/10/05 00:34:50;;;;;;;;;;;;;;;10.04;98.27;98283.84;1758739;80;21147;-82
2021/10/05 00:37:15;;;;;;;;;;;;;;;10.06;97.64;98278.16;1785418;80;20188;-82
2021/10/05 00:39:42;;;;;;;;;;;;;;;10.10;96.80;98287.38;1785110;79;20191;-83
2021/10/05 00:42:08;;;;;;;;;;;;;;;10.10;95.58;98288.19;1785315;80;20180;-82
2021/10/05 00:44:36;;;;;;;;;;;;;;;10.07;96.82;98279.23;1785333;79;20412;-83
2021/10/05 00:47:03;;;;;;;;;;;;;;;10.07;97.50;98282.48;1758615;80;21032;-83
2021/10/05 00:49:29;;;;;;;;;;;;;;;10.09;97.08;98280.34;1758589;79;20428;-83
2021/10/05 00:51:55;;;;;;;;;;;;;;;10.08;97.42;98275.47;1785788;80;20249;-83
2021/10/05 00:54:21;;;;;;;;;;;;;;;10.11;96.54;98269.50;1785272;79;20207;-83
2021/10/05 00:56:47;;;;;;;;;;;;;;;10.09;96.30;98274.39;1757650;80;20191;-83
2021/10/05 00:59:13;;;;;;;;;;;;;;;10.10;95.93;98271.94;1785226;80;21084;-83
2021/10/05 01:01:38;;;;;;;;;;;;;;;10.13;95.70;98271.39;1784930;79;20229;-83
2021/10/05 01:04:04;;;;;;;;;;;;;;;10.07;95.92;98267.05;1785542;80;20757;-83
2021/10/05 01:06:30;;;;;;;;;;;;;;;10.10;95.32;98262.47;1784814;79;20131;-84
2021/10/05 01:08:56;;;;;;;;;;;;;;;10.11;95.09;98260.57;1785310;80;20175;-82
2021/10/05 01:11:23;;;;;;;;;;;;;;;10.10;94.84;98267.88;1785321;79;21061;-84
2021/10/05 01:13:49;;;;;;;;;;;;;;;10.07;94.60;98258.92;1785248;80;20418;-82
2021/10/05 01:16:19;;;;;;;;;;;;;;;10.05;94.40;98258.94;1784961;79;20174;-83
2021/10/05 01:18:48;;;;;;;;;;;;;;;10.04;94.03;98252.70;1785333;80;20436;-82
2021/10/05 01:21:13;;;;;;;;;;;;;;;10.09;94.30;98251.38;1785044;79;20129;-82
2021/10/05 01:23:39;;;;;;;;;;;;;;;10.15;94.09;98257.03;1782863;80;21144;-83
2021/10/05 01:26:05;;;;;;;;;;;;;;;10.15;93.56;98254.33;1781659;79;20190;-82
2021/10/05 01:28:31;;;;;;;;;;;;;;;10.08;93.10;98253.81;1782215;80;20270;-84
2021/10/05 01:30:57;;;;;;;;;;;;;;;10.02;92.60;98250.82;1781860;79;20218;-83
2021/10/05 01:33:25;;;;;;;;;;;;;;;9.87;92.73;98251.62;1782163;80;20176;-82
2021/10/05 01:35:50;;;;;;;;;;;;;;;9.82;93.01;98250.78;1781757;79;21058;-83
2021/10/05 01:38:16;;;;;;;;;;;;;;;9.79;93.04;98255.39;1782138;80;20203;-83
2021/10/05 01:40:42;;;;;;;;;;;;;;;9.73;92.46;98251.05;1781931;79;20269;-83
2021/10/05 01:43:08;;;;;;;;;;;;;;;9.57;92.56;98252.91;1782195;80;20171;-83
2021/10/05 01:45:36;;;;;;;;;;;;;;;9.46;92.93;98249.91;1782318;79;20163;-83
2021/10/05 01:48:01;;;;;;;;;;;;;;;9.35;94.64;98255.03;1782147;80;20948;-83
2021/10/05 01:50:27;;;;;;;;;;;;;;;9.33;93.89;98245.84;1781721;79;20162;-83
2021/10/05 01:52:54;;;;;;;;;;;;;;;9.25;94.25;98249.05;1782122;80;20309;-82
2021/10/05 01:55:21;;;;;;;;;;;;;;;9.22;94.05;98251.72;1781794;79;20160;-83
2021/10/05 01:57:47;;;;;;;;;;;;;;;9.20;94.38;98243.61;1752822;80;20140;-82
2021/10/05 02:00:13;;;;;;;;;;;;;;;9.15;94.93;98236.86;1781680;79;21189;-82
2021/10/05 02:02:39;;;;;;;;;;;;;;;9.15;93.92;98243.61;1782061;80;20192;-83
2021/10/05 02:05:05;;;;;;;;;;;;;;;9.12;93.96;98240.87;1781964;79;20167;-83
2021/10/05 02:07:31;;;;;;;;;;;;;;;9.08;94.36;98238.45;1753038;80;20239;-83
2021/10/05 02:09:57;;;;;;;;;;;;;;;9.08;94.32;98238.98;1781825;79;20257;-82
2021/10/05 02:12:23;;;;;;;;;;;;;;;9.06;93.71;98237.91;1782588;80;21160;-83
2021/10/05 02:14:49;;;;;;;;;;;;;;;9.04;94.65;98234.63;1781860;79;20154;-82
2021/10/05 02:17:15;;;;;;;;;;;;;;;9.05;94.31;98236.25;1782177;80;20297;-83
2021/10/05 02:19:41;;;;;;;;;;;;;;;9.02;93.52;98229.48;1782316;80;20131;-84
2021/10/05 02:22:07;;;;;;;;;;;;;;;8.94;94.00;98226.48;1781770;79;20179;-83
2021/10/05 02:24:41;;;;;;;;;;;;;;;8.94;93.15;98236.75;1781758;80;21087;-82
2021/10/05 02:27:07;;;;;;;;;;;;;;;8.90;94.56;98222.16;1781822;79;20199;-82
2021/10/05 02:29:36;;;;;;;;;;;;;;;8.93;93.99;98222.16;1782127;80;20144;-84
2021/10/05 02:32:00;;;;;;;;;;;;;;;8.88;94.21;98219.42;1781606;79;20137;-83
2021/10/05 02:34:26;;;;;;;;;;;;;;;8.92;93.83;98215.94;1752528;80;20148;-83
2021/10/05 02:36:52;;;;;;;;;;;;;;;8.95;94.22;98214.05;1781723;79;21164;-83
2021/10/05 02:39:18;;;;;;;;;;;;;;;8.93;94.02;98204.59;1753566;80;20198;-83
2021/10/05 02:41:44;;;;;;;;;;;;;;;8.91;93.20;98205.41;1781852;79;20288;-83
2021/10/05 02:44:09;;;;;;;;;;;;;;;8.91;94.21;98205.41;1781897;80;20286;-83
2021/10/05 02:46:35;;;;;;;;;;;;;;;8.90;93.94;98210.53;1781759;79;20691;-82
2021/10/05 02:49:01;;;;;;;;;;;;;;;8.88;93.84;98206.72;1782036;80;21104;-84
2021/10/05 02:51:27;;;;;;;;;;;;;;;8.83;93.80;98199.96;1781669;79;20191;-82
2021/10/05 02:53:52;;;;;;;;;;;;;;;8.88;93.44;98203.20;1782638;80;20245;-83
2021/10/05 02:56:18;;;;;;;;;;;;;;;8.85;93.44;98203.74;1781684;79;20157;-82
2021/10/05 02:58:44;;;;;;;;;;;;;;;8.78;94.02;98201.81;1782141;80;20171;-82
2021/10/05 03:01:10;;;;;;;;;;;;;;;8.76;93.38;98197.49;1781589;79;21123;-83
2021/10/05 03:03:35;;;;;;;;;;;;;;;8.69;94.02;98193.41;1782501;80;20179;-83
2021/10/05 03:06:01;;;;;;;;;;;;;;;8.71;93.48;98197.45;1752498;80;20188;-82
2021/10/05 03:08:29;;;;;;;;;;;;;;;8.66;93.24;98185.30;1782126;80;20150;-83
2021/10/05 03:10:55;;;;;;;;;;;;;;;8.56;94.76;98183.91;1781889;79;21217;-83
2021/10/05 03:13:20;;;;;;;;;;;;;;;8.55;94.12;98191.73;1782165;80;21021;-83
2021/10/05 03:15:47;;;;;;;;;;;;;;;8.50;94.09;98197.63;1781929;79;20186;-83
2021/10/05 03:18:13;;;;;;;;;;;;;;;8.38;94.67;98193.25;1782175;80;20149;-83
2021/10/05 03:20:39;;;;;;;;;;;;;;;8.35;94.86;98189.70;1781832;79;20167;-82
2021/10/05 03:23:05;;;;;;;;;;;;;;;8.40;94.27;98183.54;1782433;80;20156;-83
2021/10/05 03:25:30;;;;;;;;;;;;;;;8.42;95.24;98172.74;1752764;80;21158;-83
2021/10/05 03:27:56;;;;;;;;;;;;;;;8.45;95.83;98169.51;1782541;80;20254;-83
2021/10/05 03:30:22;;;;;;;;;;;;;;;8.45;94.61;98172.20;1781878;79;20199;-84
2021/10/05 03:32:48;;;;;;;;;;;;;;;8.46;94.53;98169.00;1782062;80;20203;-82
2021/10/05 03:35:13;;;;;;;;;;;;;;;8.46;93.89;98169.00;1781804;79;20660;-83
2021/10/05 03:37:39;;;;;;;;;;;;;;;8.49;95.17;98167.11;1781891;80;21115;-83
2021/10/05 03:40:06;;;;;;;;;;;;;;;8.57;94.73;98168.50;1781766;80;20760;-83
2021/10/05 03:42:32;;;;;;;;;;;;;;;8.59;95.66;98161.75;1781601;79;20452;-83
2021/10/05 03:44:58;;;;;;;;;;;;;;;8.63;94.34;98171.48;1781735;80;20159;-83
2021/10/05 03:47:24;;;;;;;;;;;;;;;8.61;94.01;98161.48;1781791;79;20149;-83
2021/10/05 03:49:50;;;;;;;;;;;;;;;8.58;94.12;98157.44;1781904;80;21046;-83
2021/10/05 03:52:16;;;;;;;;;;;;;;;8.55;94.13;98149.87;1781739;79;20234;-82
2021/10/05 03:54:42;;;;;;;;;;;;;;;8.53;93.63;98166.84;1752383;80;20198;-83
2021/10/05 03:57:08;;;;;;;;;;;;;;;8.60;93.44;98161.22;1781860;79;20409;-83
2021/10/05 03:59:34;;;;;;;;;;;;;;;8.64;93.93;98158.28;1781843;80;20137;-83
2021/10/05 04:02:00;;;;;;;;;;;;;;;8.65;93.59;98162.06;1781686;79;21065;-83
2021/10/05 04:04:26;;;;;;;;;;;;;;;8.71;93.67;98154.77;1781872;80;20163;-83
2021/10/05 04:06:52;;;;;;;;;;;;;;;8.66;94.12;98152.06;1781821;79;20282;-82
2021/10/05 04:09:17;;;;;;;;;;;;;;;8.66;93.12;98151.53;1781843;80;20549;-83
2021/10/05 04:11:43;;;;;;;;;;;;;;;8.59;93.04;98155.55;1781751;79;20160;-82
2021/10/05 04:14:09;;;;;;;;;;;;;;;8.59;93.19;98159.59;1781897;80;21029;-83
2021/10/05 04:16:35;;;;;;;;;;;;;;;8.57;94.13;98163.91;1781563;79;20203;-83
2021/10/05 04:19:01;;;;;;;;;;;;;;;8.49;93.80;98165.77;1781862;80;20214;-83
2021/10/05 04:21:27;;;;;;;;;;;;;;;8.42;94.06;98161.94;1781706;79;20214;-83
2021/10/05 04:23:52;;;;;;;;;;;;;;;8.38;94.38;98156.80;1782061;80;20147;-83
2021/10/05 04:26:18;;;;;;;;;;;;;;;8.39;93.83;98158.97;1782666;79;21117;-82
2021/10/05 04:28:44;;;;;;;;;;;;;;;8.42;93.98;98156.54;1782384;80;20246;-83
2021/10/05 04:31:09;;;;;;;;;;;;;;;8.42;93.87;98159.78;1782312;79;20238;-82
2021/10/05 04:33:35;;;;;;;;;;;;;;;8.36;95.30;98151.37;1782664;80;20151;-83
2021/10/05 04:36:01;;;;;;;;;;;;;;;8.38;94.66;98153.30;1782241;79;20183;-83
2021/10/05 04:38:27;;;;;;;;;;;;;;;8.37;94.54;98159.73;1782507;80;21092;-83
2021/10/05 04:40:52;;;;;;;;;;;;;;;8.39;93.64;98154.38;1782169;79;20310;-83
2021/10/05 04:43:18;;;;;;;;;;;;;;;8.40;94.12;98157.88;1782487;80;20254;-82
2021/10/05 04:45:44;;;;;;;;;;;;;;;8.36;94.41;98162.17;1782299;79;20242;-83
2021/10/05 04:48:10;;;;;;;;;;;;;;;8.41;93.94;98163.02;1782828;80;20265;-83
2021/10/05 04:50:36;;;;;;;;;;;;;;;8.42;94.15;98165.18;1782448;79;21154;-82
2021/10/05 04:53:01;;;;;;;;;;;;;;;8.45;93.72;98158.70;1782695;80;20821;-83
2021/10/05 04:55:27;;;;;;;;;;;;;;;8.46;94.00;98163.06;1782540;80;20167;-83
2021/10/05 04:57:53;;;;;;;;;;;;;;;8.49;93.33;98161.71;1782301;79;20215;-82
2021/10/05 05:00:19;;;;;;;;;;;;;;;8.50;93.60;98159.28;1754802;80;20092;-83
2021/10/05 05:02:45;;;;;;;;;;;;;;;8.56;93.86;98162.83;1782383;79;21027;-82
2021/10/05 05:05:11;;;;;;;;;;;;;;;8.58;93.39;98156.08;1782466;80;20194;-83
2021/10/05 05:07:36;;;;;;;;;;;;;;;8.46;93.78;98161.70;1782346;79;20679;-82
2021/10/05 05:10:03;;;;;;;;;;;;;;;8.44;94.12;98150.33;1782476;80;20159;-82
2021/10/05 05:12:29;;;;;;;;;;;;;;;8.52;94.18;98149.56;1782800;79;20137;-82
2021/10/05 05:14:56;;;;;;;;;;;;;;;8.50;94.57;98151.72;1782541;80;21172;-82
2021/10/05 05:17:21;;;;;;;;;;;;;;;8.50;94.04;98143.08;1782515;79;20601;-83
2021/10/05 05:19:47;;;;;;;;;;;;;;;8.52;94.75;98148.21;1782805;80;20230;-82
2021/10/05 05:22:13;;;;;;;;;;;;;;;8.58;94.01;98151.22;1782782;79;20143;-82
2021/10/05 05:24:39;;;;;;;;;;;;;;;8.62;93.45;98148.25;1782082;80;20159;-83
2021/10/05 05:27:05;;;;;;;;;;;;;;;8.68;94.35;98149.37;1781949;79;21219;-83
2021/10/05 05:29:30;;;;;;;;;;;;;;;8.78;94.47;98153.19;1782040;80;20214;-82
2021/10/05 05:31:58;;;;;;;;;;;;;;;8.78;94.40;98158.59;1781984;79;20203;-84
2021/10/05 05:34:25;;;;;;;;;;;;;;;8.70;94.99;98160.72;1782049;80;20423;-83
2021/10/05 05:36:52;;;;;;;;;;;;;;;8.73;94.82;98155.34;1781974;79;20188;-82
2021/10/05 05:39:18;;;;;;;;;;;;;;;8.79;95.03;98161.56;1781958;80;21081;-82
2021/10/05 05:41:46;;;;;;;;;;;;;;;8.82;94.20;98158.34;1781760;79;20245;-82
2021/10/05 05:44:13;;;;;;;;;;;;;;;8.85;94.99;98162.67;1782305;80;20184;-83
2021/10/05 05:46:39;;;;;;;;;;;;;;;8.86;94.96;98162.94;1782040;79;20436;-83
2021/10/05 05:49:05;;;;;;;;;;;;;;;8.87;95.36;98159.16;1726353;80;21981;-81
2021/10/05 05:51:31;;;;;;;;;;;;;;;8.91;94.09;98150.81;1782170;79;21916;-82
2021/10/05 05:53:57;;;;;;;;;;;;;;;8.99;94.29;98149.48;1782476;80;20169;-83
2021/10/05 05:56:22;;;;;;;;;;;;;;;9.06;94.34;98150.05;1781960;79;20202;-82
2021/10/05 05:58:49;;;;;;;;;;;;;;;9.17;93.97;98150.88;1781956;80;20183;-83
2021/10/05 06:01:16;;;;;;;;;;;;;;;9.29;93.59;98148.73;1782004;79;20121;-82
2021/10/05 06:03:42;;;;;;;;;;;;;;;9.44;94.18;98146.05;1781979;80;21113;-80
2021/10/05 06:06:07;;;;;;;;;;;;;;;9.57;95.17;98140.63;1781880;79;20163;-83
2021/10/05 06:08:33;;;;;;;;;;;;;;;9.70;95.26;98144.17;1782090;80;20310;-83
2021/10/05 06:10:59;;;;;;;;;;;;;;;9.84;95.03;98147.96;1781874;80;20163;-82
2021/10/05 06:13:25;;;;;;;;;;;;;;;9.94;95.64;98133.61;1781897;79;20163;-82
2021/10/05 06:15:51;;;;;;;;;;;;;;;10.10;94.68;98139.27;1781768;80;21091;-83
2021/10/05 06:18:16;;;;;;;;;;;;;;;10.25;95.23;98130.31;1781744;79;20174;-83
2021/10/05 06:20:42;;;;;;;;;;;;;;;10.41;94.93;98135.96;1753727;80;20210;-83
2021/10/05 06:23:08;;;;;;;;;;;;;;;10.52;93.71;98125.12;1781831;79;20223;-82
2021/10/05 06:25:39;;;;;;;;;;;;;;;10.62;93.48;98123.17;1784557;80;20206;-83
2021/10/05 06:28:02;;;;;;;;;;;;;;;10.75;93.15;98121.75;1732545;80;21113;-82
2021/10/05 06:30:28;;;;;;;;;;;;;;;10.88;93.20;98127.13;1785363;80;20160;-83
2021/10/05 06:32:53;;;;;;;;;;;;;;;11.00;93.12;98122.98;1785280;79;20171;-82
2021/10/05 06:35:21;;;;;;;;;;;;;;;11.15;93.59;98134.29;1785799;80;20139;-82
2021/10/05 06:37:49;;;;;;;;;;;;;;;11.23;94.24;98118.78;1784974;79;20136;-83
2021/10/05 06:40:14;;;;;;;;;;;;;;;11.37;94.80;98121.68;1785232;80;20979;-82
2021/10/05 06:42:40;;;;;;;;;;;;;;;11.54;94.71;98116.67;1785235;79;20162;-83
2021/10/05 06:45:06;;;;;;;;;;;;;;;11.72;94.21;98107.02;1785150;80;20269;-82
2021/10/05 06:47:32;;;;;;;;;;;;;;;11.85;93.64;98113.71;1785229;79;20459;-82
2021/10/05 06:49:58;;;;;;;;;;;;;;;11.95;93.07;98108.73;1785227;80;20194;-82
2021/10/05 06:52:25;;;;;;;;;;;;;;;12.08;92.87;98112.14;1785236;79;21188;-83
2021/10/05 06:54:51;;;;;;;;;;;;;;;12.22;93.06;98117.69;1785429;80;20128;-83
2021/10/05 06:57:16;;;;;;;;;;;;;;;12.35;93.13;98111.59;1785270;79;20261;-82
2021/10/05 06:59:42;;;;;;;;;;;;;;;12.50;92.39;98116.86;1785197;80;20121;-83
2021/10/05 07:02:08;;;;;;;;;;;;;;;13.23;90.54;98106.13;1785409;79;20151;-82
2021/10/05 07:04:34;;;;;;;;;;;;;;;14.30;89.64;98102.42;1785325;80;21095;-83
2021/10/05 07:07:00;;;;;;;;;;;;;;;15.34;87.98;98101.38;1785052;79;20218;-82
2021/10/05 07:09:25;;;;;;;;;;;;;;;16.00;83.43;98101.16;1785346;80;20214;-83
2021/10/05 07:11:51;;;;;;;;;;;;;;;16.73;78.25;98098.91;1785216;79;20234;-82
2021/10/05 07:14:17;;;;;;;;;;;;;;;17.80;83.35;98097.01;1785382;80;20202;-84
2021/10/05 07:16:43;;;;;;;;;;;;;;;18.64;77.06;98094.08;1785301;79;21079;-84
2021/10/05 07:19:09;;;;;;;;;;;;;;;19.00;70.81;98090.84;1785183;80;20316;-83
2021/10/05 07:21:34;;;;;;;;;;;;;;;19.75;77.30;98095.05;1784888;79;20384;-83
2021/10/05 07:24:00;;;;;;;;;;;;;;;20.54;80.30;98082.87;1785086;80;20203;-84
2021/10/05 07:26:26;;;;;;;;;;;;;;;21.13;75.04;98087.30;1784992;79;20148;-84
2021/10/05 07:28:51;;;;;;;;;;;;;;;21.46;72.24;98083.59;1785255;80;21117;-83
2021/10/05 07:31:17;;;;;;;;;;;;;;;22.05;71.52;98076.52;1785058;80;20739;-83
2021/10/05 07:33:44;;;;;;;;;;;;;;;22.64;66.77;98071.55;1784940;79;20166;-84
2021/10/05 07:36:10;;;;;;;;;;;;;;;23.13;67.59;98070.56;1785030;80;20444;-83
2021/10/05 07:38:36;;;;;;;;;;;;;;;23.57;67.87;98075.84;1785041;79;20152;-83
2021/10/05 07:41:03;;;;;;;;;;;;;;;23.97;65.96;98076.06;1785201;80;21098;-84
2021/10/05 07:43:29;;;;;;;;;;;;;;;24.28;67.72;98067.55;1784902;79;20153;-84
2021/10/05 07:45:58;;;;;;;;;;;;;;;24.72;68.17;98072.67;1784993;80;20237;-84
2021/10/05 07:48:22;;;;;;;;;;;;;;;24.77;67.09;98066.79;1784838;79;20434;-84
2021/10/05 07:50:48;;;;;;;;;;;;;;;24.88;63.40;98060.84;1785062;80;20202;-84
2021/10/05 07:53:14;;;;;;;;;;;;;;;25.15;64.86;98063.63;1784977;79;21392;-84
2021/10/05 07:55:40;;;;;;;;;;;;;;;25.38;62.09;98064.36;1784991;80;20253;-84
2021/10/05 07:58:05;;;;;;;;;;;;;;;25.54;60.90;98051.66;1785640;79;20270;-84
2021/10/05 08:00:31;;;;;;;;;;;;;;;26.14;58.60;98048.77;1785027;80;20246;-84
2021/10/05 08:02:57;;;;;;;;;;;;;;;27.20;59.62;98036.95;1758960;80;20175;-84
2021/10/05 08:05:23;;;;;;;;;;;;;;;28.34;61.10;98036.73;1785057;80;21047;-84
2021/10/05 08:08:01;;;;;;;;;;;;;;;28.92;54.56;98037.55;1785040;79;20171;-84
2021/10/05 08:10:27;;;;;;;;;;;;;;;29.61;52.92;98045.94;1785214;80;20124;-84
2021/10/05 08:12:53;;;;;;;;;;;;;;;30.15;51.19;98038.88;1758884;80;20137;-84
2021/10/05 08:15:19;;;;;;;;;;;;;;;30.66;52.75;98032.33;1785260;80;20131;-84
2021/10/05 08:17:45;;;;;;;;;;;;;;;30.42;50.99;98028.50;1785627;79;21088;-84
2021/10/05 08:20:10;;;;;;;;;;;;;;;30.43;48.42;98026.71;1785052;80;20159;-85
2021/10/05 08:22:37;;;;;;;;;;;;;;;31.13;47.90;98018.09;1785172;79;20182;-85
2021/10/05 08:25:03;;;;;;;;;;;;;;;30.86;44.92;98015.17;1783801;80;20251;-85
2021/10/05 08:27:30;;;;;;;;;;;;;;;31.35;45.53;98018.64;1753665;80;20132;-85
2021/10/05 08:29:56;;;;;;;;;;;;;;;31.27;43.83;98011.55;1781940;80;21234;-85
2021/10/05 08:32:22;;;;;;;;;;;;;;;31.82;44.60;98014.69;1781869;79;20182;-84
2021/10/05 08:34:48;;;;;;;;;;;;;;;32.25;42.84;98019.84;1782040;80;20158;-85
2021/10/05 08:37:13;;;;;;;;;;;;;;;31.97;40.73;98013.28;1781903;79;20175;-85
2021/10/05 08:39:39;;;;;;;;;;;;;;;31.78;41.86;98008.33;1727551;80;20734;-85
2021/10/05 08:42:06;;;;;;;;;;;;;;;32.32;40.53;98000.75;1781941;79;21763;-85
2021/10/05 08:44:32;;;;;;;;;;;;;;;31.23;42.21;98006.00;1781851;80;20451;-85
2021/10/05 08:46:58;;;;;;;;;;;;;;;29.28;42.75;98008.95;1753435;79;20440;-85
2021/10/05 08:49:24;;;;;;;;;;;;;;;27.87;43.95;97992.50;1781645;80;20254;-85
2021/10/05 08:51:50;;;;;;;;;;;;;;;26.70;44.09;98001.27;1752317;80;20294;-85
2021/10/05 08:54:16;;;;;;;;;;;;;;;25.63;45.70;98004.20;1781485;79;21170;-86
2021/10/05 08:56:42;;;;;;;;;;;;;;;25.02;47.12;98008.97;1781832;80;20265;-84
2021/10/05 08:59:08;;;;;;;;;;;;;;;24.44;48.65;98003.19;1752083;80;20145;-85
2021/10/05 09:01:34;;;;;;;;;;;;;;;23.91;49.04;97991.96;1781751;80;20139;-84
2021/10/05 09:04:00;;;;;;;;;;;;;;;23.59;51.16;97996.92;1781714;79;20144;-85
2021/10/05 09:06:26;;;;;;;;;;;;;;;23.31;52.24;97994.92;1781901;80;21703;-85
2021/10/05 09:08:57;;;;;;;;;;;;;;;23.06;52.40;97988.30;1781564;79;20230;-86
2021/10/05 09:11:24;;;;;;;;;;;;;;;22.76;52.94;97979.73;1725560;80;20129;-86
2021/10/05 09:13:52;;;;;;;;;;;;;;;22.61;53.44;97979.19;1781542;79;20076;-85
2021/10/05 09:16:21;;;;;;;;;;;;;;;22.46;53.10;97973.11;1782192;80;20120;-84
2021/10/05 09:19:06;;;;;;;;;;;;;;;22.37;52.69;97971.92;1781089;79;21052;-85
2021/10/05 09:21:36;;;;;;;;;;;;;;;22.31;53.63;97973.37;1781630;80;20188;-84
2021/10/05 09:24:06;;;;;;;;;;;;;;;22.20;53.05;97970.33;1752388;80;20180;-85
2021/10/05 09:26:51;;;;;;;;;;;;;;;22.16;54.10;97969.46;1781456;80;20160;-85
2021/10/05 09:29:22;;;;;;;;;;;;;;;22.16;52.52;97968.66;1781819;79;20140;-84
2021/10/05 09:31:53;;;;;;;;;;;;;;;22.18;52.43;97970.48;1782123;80;21057;-85
2021/10/05 09:34:20;;;;;;;;;;;;;;;22.17;53.52;97974.41;1728700;80;20160;-83
2021/10/05 09:36:45;;;;;;;;;;;;;;;22.17;54.19;97961.41;1782126;80;20204;-83
2021/10/05 09:39:11;;;;;;;;;;;;;;;22.26;52.46;97968.70;1782002;79;20175;-85
2021/10/05 09:41:37;;;;;;;;;;;;;;;22.38;51.46;97962.48;1781837;80;20191;-84
2021/10/05 09:44:05;;;;;;;;;;;;;;;22.52;51.71;97957.30;1781833;79;21067;-85
2021/10/05 09:46:31;;;;;;;;;;;;;;;22.59;51.73;97955.87;1753416;80;20160;-85
2021/10/05 09:49:01;;;;;;;;;;;;;;;22.70;49.72;97959.66;1782275;79;20218;-84
2021/10/05 09:51:26;;;;;;;;;;;;;;;22.75;50.17;97959.39;1753892;80;20153;-85
2021/10/05 09:53:53;;;;;;;;;;;;;;;22.83;49.45;97959.77;1781846;79;20190;-84
2021/10/05 09:56:21;;;;;;;;;;;;;;;22.96;48.33;97959.06;1781783;80;21140;-85
2021/10/05 09:58:46;;;;;;;;;;;;;;;23.04;47.84;97953.33;1781727;79;20440;-85
2021/10/05 10:01:12;;;;;;;;;;;;;;;23.10;48.09;97951.67;1753508;80;20667;-84
2021/10/05 10:03:38;;;;;;;;;;;;;;;23.14;47.91;97950.56;1781870;79;20151;-83
2021/10/05 10:06:04;;;;;;;;;;;;;;;23.14;47.58;97940.89;1781769;80;20163;-83
2021/10/05 10:08:33;;;;;;;;;;;;;;;23.16;47.39;97948.81;1781989;79;21051;-83
2021/10/05 10:10:59;;;;;;;;;;;;;;;23.18;47.13;97952.03;1781954;80;20149;-84
2021/10/05 10:13:24;;;;;;;;;;;;;;;23.18;47.72;97954.21;1781976;79;20190;-84
2021/10/05 10:15:50;;;;;;;;;;;;;;;23.14;48.00;97960.81;1781869;80;20150;-83
2021/10/05 10:18:18;;;;;;;;;;;;;;;23.23;46.94;97953.91;1727559;80;20742;-84
2021/10/05 10:20:53;;;;;;;;;;;;;;;23.23;47.18;97944.23;1781762;80;21872;-84
2021/10/05 10:23:19;;;;;;;;;;;;;;;23.26;47.17;97937.98;1776999;79;20153;-85
2021/10/05 10:26:06;;;;;;;;;;;;;;;23.25;47.34;97938.36;1781336;80;20153;-84
2021/10/05 10:28:37;;;;;;;;;;;;;;;23.25;47.50;97926.72;1755213;80;20199;-83
2021/10/05 10:31:05;;;;;;;;;;;;;;;23.28;46.86;97930.13;1782330;80;20451;-84
2021/10/05 10:33:44;;;;;;;;;;;;;;;23.34;46.91;97926.48;1756163;80;21168;-85
2021/10/05 10:36:09;;;;;;;;;;;;;;;23.38;45.89;97922.40;1782453;80;20133;-84
2021/10/05 10:38:36;;;;;;;;;;;;;;;23.36;46.45;97914.48;1782375;79;20290;-84
2021/10/05 10:41:05;;;;;;;;;;;;;;;23.40;45.81;97918.09;1782270;80;20191;-85
2021/10/05 10:43:31;;;;;;;;;;;;;;;23.39;45.17;97904.64;1779734;79;20347;-84
2021/10/05 10:45:59;;;;;;;;;;;;;;;23.43;45.73;97903.56;1782494;80;21074;-84
2021/10/05 10:48:28;;;;;;;;;;;;;;;23.51;45.04;97896.19;1782420;79;20096;-84
2021/10/05 10:50:54;;;;;;;;;;;;;;;23.55;44.19;97896.45;1782584;80;20188;-83
2021/10/05 10:53:35;;;;;;;;;;;;;;;23.60;43.10;97898.96;1782471;79;20156;-84
2021/10/05 10:56:01;;;;;;;;;;;;;;;23.62;42.98;97899.97;1782428;80;20149;-85
2021/10/05 10:58:37;;;;;;;;;;;;;;;23.63;42.70;97898.21;1782511;79;21083;-84
2021/10/05 11:01:03;;;;;;;;;;;;;;;23.60;43.60;97903.11;1781777;80;20172;-84
2021/10/05 11:03:29;;;;;;;;;;;;;;;23.63;42.46;97896.03;1754812;80;20186;-84
2021/10/05 11:05:55;;;;;;;;;;;;;;;23.65;42.42;97908.90;1756215;80;20226;-85
2021/10/05 11:08:21;;;;;;;;;;;;;;;23.76;41.27;97902.20;1782617;79;20198;-85
2021/10/05 11:10:46;;;;;;;;;;;;;;;23.76;42.00;97904.37;1782472;80;21199;-84
2021/10/05 11:13:12;;;;;;;;;;;;;;;23.73;41.81;97903.71;1782399;79;20206;-84
2021/10/05 11:15:45;;;;;;;;;;;;;;;23.73;41.83;97896.80;1782944;80;20592;-84
2021/10/05 11:18:15;;;;;;;;;;;;;;;23.70;42.65;97898.13;1782518;79;20148;-85
2021/10/05 11:20:48;;;;;;;;;;;;;;;23.72;42.68;97894.41;1782253;80;20164;-83
2021/10/05 11:23:16;;;;;;;;;;;;;;;23.75;42.41;97889.50;1782915;79;21143;-84
2021/10/05 11:25:52;;;;;;;;;;;;;;;23.73;42.53;97898.77;1781450;80;20303;-84
2021/10/05 11:28:21;;;;;;;;;;;;;;;23.71;42.15;97892.81;1781610;79;20165;-85
2021/10/05 11:30:50;;;;;;;;;;;;;;;23.74;42.18;97885.94;1781865;80;20156;-84
2021/10/05 11:33:25;;;;;;;;;;;;;;;23.73;41.61;97881.58;1782189;79;20085;-84
2021/10/05 11:35:54;;;;;;;;;;;;;;;23.77;41.78;97878.89;1781829;80;20974;-83
2021/10/05 11:38:20;;;;;;;;;;;;;;;23.89;40.28;97877.30;1780737;79;20144;-84
2021/10/05 11:40:50;;;;;;;;;;;;;;;23.90;39.71;97874.16;1781837;80;20719;-84
2021/10/05 11:43:15;;;;;;;;;;;;;;;23.95;39.21;97885.52;1781948;79;20133;-85
2021/10/05 11:45:41;;;;;;;;;;;;;;;23.92;39.60;97884.27;1781917;80;20270;-84
2021/10/05 11:48:07;;;;;;;;;;;;;;;23.96;39.62;97890.46;1782229;79;21118;-84
2021/10/05 11:50:33;;;;;;;;;;;;;;;24.07;37.89;97886.68;1781587;80;20210;-83
2021/10/05 11:52:59;;;;;;;;;;;;;;;24.00;38.37;97886.56;1781797;79;20726;-85
2021/10/05 11:55:24;;;;;;;;;;;;;;;23.94;38.36;97885.89;1752245;80;20211;-85
2021/10/05 11:57:54;;;;;;;;;;;;;;;23.89;38.52;97885.02;1781998;80;20275;-84
2021/10/05 12:00:20;;;;;;;;;;;;;;;23.86;39.87;97880.82;1781686;80;20999;-84
2021/10/05 12:02:45;;;;;;;;;;;;;;;23.81;39.26;97882.50;1781943;80;20175;-84
2021/10/05 12:05:23;;;;;;;;;;;;;;;23.79;39.16;97882.08;1781538;79;20174;-85
2021/10/05 12:07:48;;;;;;;;;;;;;;;23.82;39.24;97876.59;1781236;80;20404;-84
2021/10/05 12:10:14;;;;;;;;;;;;;;;23.89;38.85;97892.52;1781664;79;20175;-84
2021/10/05 12:12:40;;;;;;;;;;;;;;;23.87;38.38;97887.36;1781910;80;21072;-84
2021/10/05 12:15:15;;;;;;;;;;;;;;;23.91;37.80;97889.59;1781674;79;20290;-84
2021/10/05 12:17:41;;;;;;;;;;;;;;;23.83;37.99;97882.34;1753168;80;20140;-84
2021/10/05 12:20:10;;;;;;;;;;;;;;;23.83;38.05;97877.39;1752006;80;20119;-85
2021/10/05 12:22:38;;;;;;;;;;;;;;;23.92;36.32;97876.55;1752790;80;20165;-85
2021/10/05 12:25:15;;;;;;;;;;;;;;;23.92;35.93;97883.47;1781673;79;21737;-85
2021/10/05 12:27:42;;;;;;;;;;;;;;;23.87;36.30;97876.30;1782166;80;20239;-85
2021/10/05 12:30:23;;;;;;;;;;;;;;;23.79;36.52;97867.66;1782284;79;20425;-84
2021/10/05 12:32:59;;;;;;;;;;;;;;;23.73;37.60;97869.72;1782426;80;20137;-84
2021/10/05 12:35:31;;;;;;;;;;;;;;;23.74;37.69;97863.81;1782175;79;20436;-85
2021/10/05 12:38:06;;;;;;;;;;;;;;;23.76;36.37;97862.09;1782633;80;21009;-84
2021/10/05 12:40:44;;;;;;;;;;;;;;;23.79;35.94;97866.28;1782306;80;20455;-85
2021/10/05 12:43:11;;;;;;;;;;;;;;;23.77;36.43;97862.30;1782194;79;20145;-83
2021/10/05 12:45:39;;;;;;;;;;;;;;;23.77;36.28;97863.09;1782260;80;20128;-85
2021/10/05 12:48:06;;;;;;;;;;;;;;;23.76;36.71;97858.73;1782445;80;20140;-84